Αρχική σελίδα
METAR-TAF:

METAR-TAF

Αεροδρόμια :

Minden, Νεβάδα, Ηνωμένες Πολιτείες Αμερικής

γεωγραφικό πλάτος: 39-00-03N, γεωγραφικό μήκος: 119-45-07W, υψόμετρο: 1439 μ

Παρών καιρός

Η αναφορά έγινε 6 λεπτά πριν, στις 08:35 UTC
Άνεμος 4 kt από Α
Θερμοκρασία 17°C
Υγρασία 59%
Πίεση 1020 hPa
Ορατότητα: 16.1 χλμ
Καθαρός ουρανός

METAR: KMEV 200835Z AUTO 10004KT 10SM CLR 17/09 A3012 RMK AO2

Χρόνος: 01:41 (08:41 UTC)


TAF: λείπει

Μετεωρολογικές αναφορές και προγνώσεις για περισσότερα από 4000 αεροδρόμια (δελτία METAR και TAF).

Οι διαθέσιμοι σταθμοί απεικονίζονται στο χάρτη με κίτρινες και κόκκινες κουκκίδες.

Μετακινήστε το ποντίκι πάνω από τις κουκκίδες για να δείτε το όνομα του σταθμού.

Στη συνέχεια, κάντε κλικ για να δείτε τις μετεωρολογικές αναφορές και τις προγνώσεις καιρού.

Για να αλλάξετε το χάρτη: κάντε κλικ στα πράσινα κουμπιά με τον μαύρο σταυρό για να ζουμάρετε, στο πράσινο κουμπί με την παύλα για να αφαιρέσετε το ζουμ ή στα πράσινα βέλη για να αντιπαραβάλλετε χάρτες.


METAR-TAF: